Time;durP1;ratioP1;P1;durP2;ratioP2;P2;SDS_P1;SDS_P2;PMS_P1;PMS_P2;Temp;Humidity;BMP_temperature;BMP_pressure;BME280_temperature;BME280_humidity;BME280_pressure;Samples;Min_cycle;Max_cycle;Signal;HPM_P1;HPM_P2
2022/10/25 00:01:31;;;;;;;7.80;2.88;;;;;;;;;;5002961;28;20252;-64
2022/10/25 00:03:56;;;;;;;7.57;2.97;;;;;;;;;;5002042;28;20239;-64
2022/10/25 00:06:22;;;;;;;6.78;2.92;;;;;;;;;;5002652;28;20252;-64
2022/10/25 00:08:47;;;;;;;11.77;2.72;;;;;;;;;;5002821;28;20295;-64
2022/10/25 00:11:17;;;;;;;8.02;3.33;;;;;;;;;;5001781;28;20252;-64
2022/10/25 00:13:42;;;;;;;8.25;2.60;;;;;;;;;;4999554;28;20212;-64
2022/10/25 00:16:12;;;;;;;8.18;2.83;;;;;;;;;;4993678;28;20457;-64
2022/10/25 00:18:37;;;;;;;9.68;3.00;;;;;;;;;;4997710;28;20831;-64
2022/10/25 00:21:03;;;;;;;8.82;2.90;;;;;;;;;;5001712;28;20757;-65
2022/10/25 00:23:28;;;;;;;7.47;2.88;;;;;;;;;;5005359;28;20254;-64
2022/10/25 00:26:00;;;;;;;9.18;2.70;;;;;;;;;;5006968;28;20213;-63
2022/10/25 00:28:25;;;;;;;9.27;3.25;;;;;;;;;;5006180;28;20772;-64
2022/10/25 00:30:58;;;;;;;7.15;2.85;;;;;;;;;;5005756;28;20282;-64
2022/10/25 00:33:23;;;;;;;8.43;3.00;;;;;;;;;;5006080;28;20216;-64
2022/10/25 00:35:48;;;;;;;11.23;3.20;;;;;;;;;;5004670;28;20671;-64
2022/10/25 00:38:13;;;;;;;9.25;3.08;;;;;;;;;;4998269;28;20216;-64
2022/10/25 00:40:39;;;;;;;11.18;3.17;;;;;;;;;;4998077;28;20727;-64
2022/10/25 00:43:04;;;;;;;8.88;2.97;;;;;;;;;;4999565;28;20236;-64
2022/10/25 00:45:30;;;;;;;8.65;3.00;;;;;;;;;;5005754;28;20224;-64
2022/10/25 00:47:58;;;;;;;9.57;3.45;;;;;;;;;;5006018;28;20308;-66
2022/10/25 00:50:27;;;;;;;6.35;2.70;;;;;;;;;;5004310;28;21014;-64
2022/10/25 00:52:53;;;;;;;9.27;3.10;;;;;;;;;;5005473;28;20246;-64
2022/10/25 00:55:19;;;;;;;8.20;2.95;;;;;;;;;;5005592;28;20213;-64
2022/10/25 00:57:46;;;;;;;10.55;3.50;;;;;;;;;;5006457;28;20525;-64
2022/10/25 01:00:12;;;;;;;8.98;3.50;;;;;;;;;;4998121;28;20240;-64
2022/10/25 01:02:37;;;;;;;9.43;3.85;;;;;;;;;;4997932;28;20256;-64
2022/10/25 01:05:02;;;;;;;10.65;3.53;;;;;;;;;;4996963;28;20243;-64
2022/10/25 01:07:28;;;;;;;8.18;3.15;;;;;;;;;;5002694;28;20770;-64
2022/10/25 01:09:53;;;;;;;8.98;3.75;;;;;;;;;;5004124;28;20216;-64
2022/10/25 01:12:18;;;;;;;12.15;3.67;;;;;;;;;;5004679;28;20701;-64
2022/10/25 01:14:44;;;;;;;9.35;3.55;;;;;;;;;;5005524;28;20201;-64
2022/10/25 01:17:22;;;;;;;11.52;3.75;;;;;;;;;;5005224;28;20275;-64
2022/10/25 01:19:54;;;;;;;11.90;4.38;;;;;;;;;;5003150;28;20226;-64
2022/10/25 01:22:20;;;;;;;7.28;3.50;;;;;;;;;;4998424;28;20777;-64
2022/10/25 01:24:47;;;;;;;9.45;3.80;;;;;;;;;;4997163;28;20949;-64
2022/10/25 01:27:18;;;;;;;8.73;3.70;;;;;;;;;;4996461;28;20224;-64
2022/10/25 01:29:53;;;;;;;10.05;3.85;;;;;;;;;;5002808;28;20219;-64
2022/10/25 01:32:20;;;;;;;9.25;3.78;;;;;;;;;;5004915;28;20209;-64
2022/10/25 01:34:49;;;;;;;10.43;3.97;;;;;;;;;;5002840;28;20314;-64
2022/10/25 01:37:17;;;;;;;11.50;4.40;;;;;;;;;;5003911;28;20717;-64
2022/10/25 01:39:43;;;;;;;10.35;3.80;;;;;;;;;;5009924;28;20216;-64
2022/10/25 01:42:09;;;;;;;12.05;4.07;;;;;;;;;;5010155;28;20232;-64
2022/10/25 01:44:53;;;;;;;10.27;4.10;;;;;;;;;;5005021;28;20217;-64
2022/10/25 01:47:20;;;;;;;10.52;3.85;;;;;;;;;;5000470;28;20205;-64
2022/10/25 01:49:48;;;;;;;10.38;4.10;;;;;;;;;;4996298;28;20213;-64
2022/10/25 01:52:14;;;;;;;11.77;4.30;;;;;;;;;;4994713;28;20698;-64
2022/10/25 01:54:39;;;;;;;13.35;4.93;;;;;;;;;;4994754;28;20522;-64
2022/10/25 01:57:18;;;;;;;8.90;4.15;;;;;;;;;;5003837;28;20675;-65
2022/10/25 01:59:44;;;;;;;13.88;5.10;;;;;;;;;;5004760;28;20311;-64
2022/10/25 02:02:09;;;;;;;13.52;4.25;;;;;;;;;;5003112;28;20299;-64
2022/10/25 02:04:38;;;;;;;8.77;4.18;;;;;;;;;;5004446;28;20216;-64
2022/10/25 02:07:05;;;;;;;11.60;3.97;;;;;;;;;;5003859;28;20249;-64
2022/10/25 02:09:32;;;;;;;15.10;4.43;;;;;;;;;;5002264;28;20208;-64
2022/10/25 02:11:58;;;;;;;12.15;4.13;;;;;;;;;;4997683;28;20372;-64
2022/10/25 02:14:31;;;;;;;11.02;4.25;;;;;;;;;;4988449;28;20734;-64
2022/10/25 02:16:58;;;;;;;11.05;3.45;;;;;;;;;;4994224;28;20208;-64
2022/10/25 02:19:32;;;;;;;11.98;3.42;;;;;;;;;;5002434;28;20303;-64
2022/10/25 02:21:57;;;;;;;12.60;3.67;;;;;;;;;;5004441;28;20255;-64
2022/10/25 02:24:23;;;;;;;9.48;3.33;;;;;;;;;;4986480;28;20676;-64
2022/10/25 02:26:48;;;;;;;11.48;3.47;;;;;;;;;;5002992;28;20209;-64
2022/10/25 02:29:13;;;;;;;10.73;3.60;;;;;;;;;;5002147;28;20217;-64
2022/10/25 02:31:39;;;;;;;13.38;3.85;;;;;;;;;;5003451;28;20204;-64
2022/10/25 02:34:04;;;;;;;14.80;3.88;;;;;;;;;;4997770;28;20219;-64
2022/10/25 02:36:29;;;;;;;11.15;3.42;;;;;;;;;;4995924;28;20282;-64
2022/10/25 02:38:56;;;;;;;11.88;3.47;;;;;;;;;;4995146;28;20212;-64
2022/10/25 02:41:21;;;;;;;11.65;3.80;;;;;;;;;;4998645;28;20224;-63
2022/10/25 02:43:46;;;;;;;14.50;3.80;;;;;;;;;;5003293;28;20220;-63
2022/10/25 02:46:13;;;;;;;10.02;3.40;;;;;;;;;;5003495;28;20212;-64
2022/10/25 02:48:39;;;;;;;12.15;3.65;;;;;;;;;;5003736;28;20397;-64
2022/10/25 02:51:04;;;;;;;9.60;3.40;;;;;;;;;;5002719;28;20576;-65
2022/10/25 02:53:30;;;;;;;14.90;3.80;;;;;;;;;;5004004;28;20316;-64
2022/10/25 02:56:02;;;;;;;14.27;4.20;;;;;;;;;;5001836;28;20678;-64
2022/10/25 02:58:28;;;;;;;11.23;3.88;;;;;;;;;;4995505;28;20236;-64
2022/10/25 03:00:53;;;;;;;16.75;4.63;;;;;;;;;;4995618;28;20220;-63
2022/10/25 03:03:18;;;;;;;10.65;3.83;;;;;;;;;;4997235;28;20286;-64
2022/10/25 03:05:44;;;;;;;13.88;4.07;;;;;;;;;;5002746;28;20770;-64
2022/10/25 03:08:09;;;;;;;12.43;4.30;;;;;;;;;;5002898;28;20808;-64
2022/10/25 03:10:35;;;;;;;14.85;4.43;;;;;;;;;;5003698;28;20217;-64
2022/10/25 03:13:00;;;;;;;12.48;4.20;;;;;;;;;;5002665;28;20220;-64
2022/10/25 03:15:26;;;;;;;18.83;5.05;;;;;;;;;;5003593;28;20208;-64
2022/10/25 03:17:51;;;;;;;12.80;4.38;;;;;;;;;;5003140;28;20208;-64
2022/10/25 03:20:16;;;;;;;17.75;4.70;;;;;;;;;;4994932;28;20214;-64
2022/10/25 03:22:41;;;;;;;15.13;5.13;;;;;;;;;;4995208;28;20563;-64
2022/10/25 03:25:07;;;;;;;13.20;4.65;;;;;;;;;;4995536;28;20293;-64
2022/10/25 03:27:32;;;;;;;12.32;4.78;;;;;;;;;;5002373;28;20291;-64
2022/10/25 03:29:57;;;;;;;15.98;5.55;;;;;;;;;;5003381;28;20675;-64
2022/10/25 03:32:22;;;;;;;15.40;5.32;;;;;;;;;;5002959;28;20291;-64
2022/10/25 03:34:48;;;;;;;15.98;5.40;;;;;;;;;;5002667;28;20282;-64
2022/10/25 03:37:13;;;;;;;13.88;5.50;;;;;;;;;;5002813;28;20235;-64
2022/10/25 03:39:38;;;;;;;11.88;4.72;;;;;;;;;;5003115;28;20216;-64
2022/10/25 03:42:04;;;;;;;15.18;5.15;;;;;;;;;;4996724;28;20819;-65
2022/10/25 03:44:29;;;;;;;16.67;5.43;;;;;;;;;;4995294;28;20228;-64
2022/10/25 03:46:54;;;;;;;14.32;5.40;;;;;;;;;;4994692;28;20436;-64
2022/10/25 03:49:19;;;;;;;15.63;4.80;;;;;;;;;;4999279;28;20227;-64
2022/10/25 03:51:45;;;;;;;16.27;4.93;;;;;;;;;;5003014;28;20705;-64
2022/10/25 03:54:10;;;;;;;17.17;5.43;;;;;;;;;;5001858;28;20212;-64
2022/10/25 03:56:35;;;;;;;16.65;4.90;;;;;;;;;;5003550;28;20212;-64
2022/10/25 03:59:00;;;;;;;14.07;4.93;;;;;;;;;;5002408;28;20717;-65
2022/10/25 04:01:26;;;;;;;16.52;5.35;;;;;;;;;;5002374;28;20240;-63
2022/10/25 04:03:51;;;;;;;16.10;5.45;;;;;;;;;;5000216;28;20212;-64
2022/10/25 04:06:16;;;;;;;15.45;4.82;;;;;;;;;;4994562;28;20771;-64
2022/10/25 04:08:41;;;;;;;14.02;5.90;;;;;;;;;;4994456;28;20220;-64
2022/10/25 04:11:07;;;;;;;14.63;5.05;;;;;;;;;;4997418;28;20223;-64
2022/10/25 04:13:32;;;;;;;13.70;4.75;;;;;;;;;;5002935;28;21337;-64
2022/10/25 04:15:57;;;;;;;14.90;5.18;;;;;;;;;;5002313;28;20216;-64
2022/10/25 04:18:22;;;;;;;14.77;5.20;;;;;;;;;;5003739;28;20672;-63
2022/10/25 04:20:48;;;;;;;14.57;5.60;;;;;;;;;;5010867;28;20224;-64
2022/10/25 04:23:13;;;;;;;16.98;5.22;;;;;;;;;;5001628;28;20236;-64
2022/10/25 04:25:38;;;;;;;15.25;4.80;;;;;;;;;;4992940;28;20220;-64
2022/10/25 04:28:04;;;;;;;15.65;5.28;;;;;;;;;;4998262;28;20219;-63
2022/10/25 04:30:29;;;;;;;15.13;4.93;;;;;;;;;;5001834;28;20234;-64
2022/10/25 04:32:55;;;;;;;14.73;5.30;;;;;;;;;;5002410;28;20641;-64
2022/10/25 04:35:20;;;;;;;18.02;4.93;;;;;;;;;;4996523;28;20672;-64
2022/10/25 04:37:46;;;;;;;15.68;5.63;;;;;;;;;;4993903;28;20371;-64
2022/10/25 04:40:11;;;;;;;13.93;4.90;;;;;;;;;;4993951;28;20235;-64
2022/10/25 04:42:36;;;;;;;14.35;5.03;;;;;;;;;;5000497;28;20725;-63
2022/10/25 04:45:02;;;;;;;15.60;4.47;;;;;;;;;;5001264;28;20262;-64
2022/10/25 04:47:31;;;;;;;15.63;4.63;;;;;;;;;;5002547;28;20208;-64
2022/10/25 04:49:56;;;;;;;12.48;4.07;;;;;;;;;;5002527;28;20300;-63
2022/10/25 04:52:21;;;;;;;11.93;4.97;;;;;;;;;;5001199;28;20645;-64
2022/10/25 04:54:47;;;;;;;16.20;4.82;;;;;;;;;;5002279;28;20614;-64
2022/10/25 04:57:12;;;;;;;13.68;5.07;;;;;;;;;;4998718;28;20223;-63
2022/10/25 04:59:37;;;;;;;14.52;4.53;;;;;;;;;;4994130;28;20709;-64
2022/10/25 05:02:02;;;;;;;13.10;4.85;;;;;;;;;;4993800;28;20233;-64
2022/10/25 05:04:28;;;;;;;13.73;4.95;;;;;;;;;;4999532;28;20665;-64
2022/10/25 05:06:53;;;;;;;9.25;4.60;;;;;;;;;;5005498;28;20576;-64
2022/10/25 05:09:18;;;;;;;18.55;5.00;;;;;;;;;;5005334;28;20228;-64
2022/10/25 05:11:43;;;;;;;13.00;5.25;;;;;;;;;;5004978;28;20216;-64
2022/10/25 05:14:09;;;;;;;16.08;4.97;;;;;;;;;;5005334;28;20874;-64
2022/10/25 05:16:34;;;;;;;13.82;5.80;;;;;;;;;;5005712;28;20212;-64
2022/10/25 05:19:00;;;;;;;11.80;5.15;;;;;;;;;;5004299;28;20298;-64
2022/10/25 05:21:27;;;;;;;11.48;5.72;;;;;;;;;;4997643;28;20212;-64
2022/10/25 05:23:52;;;;;;;12.95;5.70;;;;;;;;;;4985215;28;20247;-63
2022/10/25 05:26:18;;;;;;;14.82;5.38;;;;;;;;;;4997256;28;20213;-63
2022/10/25 05:28:44;;;;;;;14.88;6.03;;;;;;;;;;5005365;28;20788;-63
2022/10/25 05:31:12;;;;;;;13.52;5.88;;;;;;;;;;5004786;28;20216;-64
2022/10/25 05:33:37;;;;;;;13.32;5.90;;;;;;;;;;5005028;28;20211;-64
2022/10/25 05:36:03;;;;;;;12.63;5.75;;;;;;;;;;5004625;28;20224;-64
2022/10/25 05:38:28;;;;;;;13.45;5.63;;;;;;;;;;5005342;28;20217;-64
2022/10/25 05:40:54;;;;;;;14.90;6.07;;;;;;;;;;5003714;28;20557;-63
2022/10/25 05:43:19;;;;;;;17.50;6.45;;;;;;;;;;4999354;28;20295;-63
2022/10/25 05:45:44;;;;;;;12.52;5.90;;;;;;;;;;4996997;28;20519;-64
2022/10/25 05:48:10;;;;;;;12.25;5.82;;;;;;;;;;4996004;28;20223;-63
2022/10/25 05:50:35;;;;;;;12.18;5.32;;;;;;;;;;5003104;28;20747;-64
2022/10/25 05:53:00;;;;;;;12.38;5.32;;;;;;;;;;5004434;28;20223;-65
2022/10/25 05:55:25;;;;;;;12.73;6.00;;;;;;;;;;5004382;28;20663;-63
2022/10/25 05:57:51;;;;;;;11.23;5.80;;;;;;;;;;5003206;28;20262;-62
2022/10/25 06:00:16;;;;;;;15.60;5.93;;;;;;;;;;5003697;28;20232;-63
2022/10/25 06:02:41;;;;;;;12.45;6.05;;;;;;;;;;5003549;28;20224;-65
2022/10/25 06:05:07;;;;;;;17.38;6.10;;;;;;;;;;5001073;28;20239;-64
2022/10/25 06:07:32;;;;;;;12.90;5.80;;;;;;;;;;4996842;28;20278;-65
2022/10/25 06:09:57;;;;;;;12.40;6.50;;;;;;;;;;4993361;28;21222;-64
2022/10/25 06:12:23;;;;;;;14.15;6.80;;;;;;;;;;4997467;28;20220;-64
2022/10/25 06:14:48;;;;;;;15.07;6.03;;;;;;;;;;5001200;28;20250;-63
2022/10/25 06:17:13;;;;;;;16.50;6.65;;;;;;;;;;5001987;28;20239;-64
2022/10/25 06:19:38;;;;;;;11.63;6.03;;;;;;;;;;5003062;28;20204;-64
2022/10/25 06:22:04;;;;;;;14.80;6.18;;;;;;;;;;5000554;28;20240;-63
2022/10/25 06:24:29;;;;;;;14.32;6.47;;;;;;;;;;5003105;28;20208;-63
2022/10/25 06:26:54;;;;;;;12.43;6.50;;;;;;;;;;5002002;28;20239;-64
2022/10/25 06:29:19;;;;;;;10.18;5.93;;;;;;;;;;5004490;28;21158;-63
2022/10/25 06:31:45;;;;;;;9.10;5.63;;;;;;;;;;5019103;28;20290;-63
2022/10/25 06:34:10;;;;;;;16.95;5.80;;;;;;;;;;5016478;28;20571;-64
2022/10/25 06:36:35;;;;;;;11.63;5.18;;;;;;;;;;5015936;28;20266;-63
2022/10/25 06:39:01;;;;;;;13.23;5.78;;;;;;;;;;5016552;28;20216;-64
2022/10/25 06:41:26;;;;;;;12.32;6.38;;;;;;;;;;5013723;28;20224;-63
2022/10/25 06:43:52;;;;;;;14.68;5.68;;;;;;;;;;5007072;28;20216;-64
2022/10/25 06:46:21;;;;;;;11.43;4.95;;;;;;;;;;5008400;28;20578;-63
2022/10/25 06:48:46;;;;;;;12.98;5.40;;;;;;;;;;5006961;28;20633;-63
2022/10/25 06:51:12;;;;;;;12.18;5.30;;;;;;;;;;5006024;28;20204;-63
2022/10/25 06:53:37;;;;;;;14.63;5.10;;;;;;;;;;5006145;28;20239;-63
2022/10/25 06:56:03;;;;;;;13.17;5.87;;;;;;;;;;5006004;28;20423;-64
2022/10/25 06:58:28;;;;;;;17.92;6.20;;;;;;;;;;5006564;28;20201;-64
2022/10/25 07:00:53;;;;;;;12.55;6.45;;;;;;;;;;5006474;28;20228;-64
2022/10/25 07:03:20;;;;;;;12.38;5.85;;;;;;;;;;5007691;28;20224;-64
2022/10/25 07:05:45;;;;;;;11.95;5.95;;;;;;;;;;5007026;28;20224;-65
2022/10/25 07:08:10;;;;;;;11.82;5.80;;;;;;;;;;5007683;28;20300;-64
2022/10/25 07:10:35;;;;;;;12.05;5.72;;;;;;;;;;5007910;28;20231;-64
2022/10/25 07:13:01;;;;;;;11.60;5.80;;;;;;;;;;5006558;28;20212;-64
2022/10/25 07:15:26;;;;;;;10.10;5.82;;;;;;;;;;5007951;28;20251;-64
2022/10/25 07:17:53;;;;;;;11.82;5.57;;;;;;;;;;5007644;28;20549;-64
2022/10/25 07:20:18;;;;;;;16.23;6.20;;;;;;;;;;5005774;28;20205;-64
2022/10/25 07:22:43;;;;;;;12.50;7.15;;;;;;;;;;5012775;28;20227;-64
2022/10/25 07:25:09;;;;;;;14.82;6.05;;;;;;;;;;5012655;28;20216;-63
2022/10/25 07:27:34;;;;;;;14.77;6.32;;;;;;;;;;5007217;28;20205;-64
2022/10/25 07:29:59;;;;;;;15.05;7.13;;;;;;;;;;5007089;28;20208;-64
2022/10/25 07:32:24;;;;;;;20.88;10.65;;;;;;;;;;5006476;28;20271;-64
2022/10/25 07:34:50;;;;;;;14.40;7.25;;;;;;;;;;5007211;28;20212;-63
2022/10/25 07:37:15;;;;;;;16.10;7.60;;;;;;;;;;5006730;28;20262;-64
2022/10/25 07:39:40;;;;;;;16.58;7.95;;;;;;;;;;5006142;28;20231;-65
2022/10/25 07:42:05;;;;;;;15.32;7.80;;;;;;;;;;5006603;28;20216;-65
2022/10/25 07:44:31;;;;;;;17.42;7.97;;;;;;;;;;5007287;28;20553;-65
2022/10/25 07:46:56;;;;;;;14.18;7.25;;;;;;;;;;5006152;28;20274;-65
2022/10/25 07:49:21;;;;;;;14.65;7.70;;;;;;;;;;5006974;28;20575;-65
2022/10/25 07:51:46;;;;;;;17.23;7.13;;;;;;;;;;5006315;28;20220;-63
2022/10/25 07:54:12;;;;;;;14.35;7.53;;;;;;;;;;5005772;28;20714;-63
2022/10/25 07:56:37;;;;;;;17.27;7.18;;;;;;;;;;5006980;28;20270;-63
2022/10/25 07:59:02;;;;;;;12.82;6.50;;;;;;;;;;5007110;28;20216;-63
2022/10/25 08:01:28;;;;;;;15.98;6.57;;;;;;;;;;5006842;28;20646;-63
2022/10/25 08:03:53;;;;;;;13.57;5.72;;;;;;;;;;5007233;28;20895;-63
2022/10/25 08:06:19;;;;;;;9.23;5.82;;;;;;;;;;5006863;28;20239;-63
2022/10/25 08:08:44;;;;;;;15.73;5.95;;;;;;;;;;5006421;28;20232;-63
2022/10/25 08:11:10;;;;;;;12.27;5.80;;;;;;;;;;5006523;28;20482;-63
2022/10/25 08:13:35;;;;;;;13.70;6.45;;;;;;;;;;5007160;28;20204;-63
2022/10/25 08:16:00;;;;;;;11.70;5.63;;;;;;;;;;5005892;28;20334;-63
2022/10/25 08:18:26;;;;;;;13.88;6.20;;;;;;;;;;5006936;28;20224;-63
2022/10/25 08:20:51;;;;;;;14.30;6.07;;;;;;;;;;5006789;28;20224;-63
2022/10/25 08:23:16;;;;;;;11.75;5.90;;;;;;;;;;5005625;28;20227;-63
2022/10/25 08:25:42;;;;;;;12.35;6.55;;;;;;;;;;5006920;28;20247;-62
2022/10/25 08:28:07;;;;;;;14.98;6.40;;;;;;;;;;5005776;28;20304;-63
2022/10/25 08:30:32;;;;;;;13.43;6.07;;;;;;;;;;5006253;28;20495;-65
2022/10/25 08:32:57;;;;;;;14.02;6.05;;;;;;;;;;5007134;28;20223;-65
2022/10/25 08:35:23;;;;;;;14.68;6.10;;;;;;;;;;5005858;28;20236;-65
2022/10/25 08:37:48;;;;;;;12.60;7.18;;;;;;;;;;5007004;28;20215;-65
2022/10/25 08:40:19;;;;;;;15.07;7.05;;;;;;;;;;5009881;28;20209;-65
2022/10/25 08:42:48;;;;;;;15.75;7.35;;;;;;;;;;5009084;28;20224;-65
2022/10/25 08:45:16;;;;;;;13.90;6.97;;;;;;;;;;5010203;28;20212;-65
2022/10/25 08:47:42;;;;;;;13.50;6.68;;;;;;;;;;5009044;28;20630;-65
2022/10/25 08:50:17;;;;;;;15.68;7.70;;;;;;;;;;5007792;28;20679;-65
2022/10/25 08:52:44;;;;;;;13.55;7.40;;;;;;;;;;5010387;28;20266;-65
2022/10/25 08:55:12;;;;;;;14.18;7.47;;;;;;;;;;5008359;28;20575;-65
2022/10/25 08:57:37;;;;;;;14.73;7.30;;;;;;;;;;5007869;28;20219;-65
2022/10/25 09:00:09;;;;;;;14.50;7.82;;;;;;;;;;5008313;28;20213;-65
2022/10/25 09:02:34;;;;;;;12.77;7.15;;;;;;;;;;5010148;28;20302;-65
2022/10/25 09:04:59;;;;;;;12.60;7.57;;;;;;;;;;5009284;28;20723;-65
2022/10/25 09:07:35;;;;;;;13.32;7.60;;;;;;;;;;5009893;28;20220;-65
2022/10/25 09:10:13;;;;;;;14.57;8.02;;;;;;;;;;5008185;28;20240;-65
2022/10/25 09:12:40;;;;;;;16.48;8.60;;;;;;;;;;5007550;28;20220;-65
2022/10/25 09:15:10;;;;;;;15.48;8.55;;;;;;;;;;5008043;28;20216;-65
2022/10/25 09:17:38;;;;;;;14.57;8.60;;;;;;;;;;5007866;28;20212;-65
2022/10/25 09:20:06;;;;;;;18.33;9.50;;;;;;;;;;5008024;28;20224;-65
2022/10/25 09:22:36;;;;;;;15.80;9.27;;;;;;;;;;5008545;28;20225;-65
2022/10/25 09:25:03;;;;;;;19.30;9.35;;;;;;;;;;5008144;28;20220;-65
2022/10/25 09:27:29;;;;;;;16.45;9.55;;;;;;;;;;5009935;28;20295;-65
2022/10/25 09:29:57;;;;;;;12.85;9.15;;;;;;;;;;5009409;28;20216;-65
2022/10/25 09:32:24;;;;;;;16.67;9.73;;;;;;;;;;5007222;28;20251;-65
2022/10/25 09:34:49;;;;;;;17.17;9.48;;;;;;;;;;5009737;28;20294;-65
2022/10/25 09:37:16;;;;;;;20.27;9.70;;;;;;;;;;5007802;28;20684;-65
2022/10/25 09:39:46;;;;;;;19.73;9.00;;;;;;;;;;5008236;28;20213;-65
2022/10/25 09:42:15;;;;;;;16.35;9.10;;;;;;;;;;5007164;28;20264;-66
2022/10/25 09:44:41;;;;;;;18.02;8.80;;;;;;;;;;5009373;28;20263;-65
2022/10/25 09:47:17;;;;;;;16.40;9.20;;;;;;;;;;5008253;28;20205;-65
2022/10/25 09:49:46;;;;;;;17.05;8.63;;;;;;;;;;5009039;28;20639;-66
2022/10/25 09:52:14;;;;;;;13.65;8.40;;;;;;;;;;5008838;28;20340;-65
2022/10/25 09:54:44;;;;;;;16.83;9.20;;;;;;;;;;5007224;28;20275;-65
2022/10/25 09:57:09;;;;;;;18.90;8.55;;;;;;;;;;5013054;28;20213;-65
2022/10/25 09:59:35;;;;;;;16.23;8.32;;;;;;;;;;5014348;28;20214;-65
2022/10/25 10:02:00;;;;;;;16.05;8.05;;;;;;;;;;5013737;28;20235;-66
2022/10/25 10:04:33;;;;;;;14.38;8.25;;;;;;;;;;5014516;28;20710;-65
2022/10/25 10:07:01;;;;;;;12.90;7.68;;;;;;;;;;5013703;28;20228;-65
2022/10/25 10:09:27;;;;;;;14.43;8.27;;;;;;;;;;5014316;28;20213;-65
2022/10/25 10:11:52;;;;;;;13.02;7.82;;;;;;;;;;5013113;28;20287;-65
2022/10/25 10:14:31;;;;;;;14.10;6.93;;;;;;;;;;5013197;28;20771;-64
2022/10/25 10:16:56;;;;;;;14.20;7.55;;;;;;;;;;4993336;28;20577;-64
2022/10/25 10:19:22;;;;;;;14.13;7.25;;;;;;;;;;4995641;28;20216;-64
2022/10/25 10:21:56;;;;;;;14.68;8.00;;;;;;;;;;5006954;28;20215;-65
2022/10/25 10:24:22;;;;;;;12.60;7.70;;;;;;;;;;5007392;28;20299;-64
2022/10/25 10:26:50;;;;;;;13.32;7.88;;;;;;;;;;5007583;28;20267;-64
2022/10/25 10:29:17;;;;;;;13.95;7.82;;;;;;;;;;5004936;28;20668;-64
2022/10/25 10:31:43;;;;;;;16.38;7.93;;;;;;;;;;5006670;28;20205;-65
2022/10/25 10:34:26;;;;;;;13.63;8.07;;;;;;;;;;5007499;28;20220;-64
2022/10/25 10:37:01;;;;;;;12.77;8.32;;;;;;;;;;5007465;28;20513;-63
2022/10/25 10:39:27;;;;;;;15.80;8.30;;;;;;;;;;5007834;28;20235;-63
2022/10/25 10:41:59;;;;;;;14.98;8.55;;;;;;;;;;5007836;28;20692;-62
2022/10/25 10:44:25;;;;;;;12.90;7.43;;;;;;;;;;5007895;28;20209;-64
2022/10/25 10:46:50;;;;;;;12.27;7.95;;;;;;;;;;5008347;28;20270;-63
2022/10/25 10:49:15;;;;;;;14.40;7.53;;;;;;;;;;5006460;28;20224;-62
2022/10/25 10:51:41;;;;;;;12.88;7.07;;;;;;;;;;5006831;28;20233;-62
2022/10/25 10:54:17;;;;;;;10.18;6.35;;;;;;;;;;5007919;28;20540;-63
2022/10/25 10:56:43;;;;;;;12.73;6.70;;;;;;;;;;5008140;28;20234;-62
2022/10/25 10:59:24;;;;;;;11.52;6.75;;;;;;;;;;5006433;28;20671;-62
2022/10/25 11:01:49;;;;;;;13.82;7.10;;;;;;;;;;5006368;28;20236;-62
2022/10/25 11:04:15;;;;;;;14.48;7.03;;;;;;;;;;5007342;28;20244;-62
2022/10/25 11:06:40;;;;;;;12.23;6.88;;;;;;;;;;5007902;28;20220;-62
2022/10/25 11:09:14;;;;;;;13.68;7.10;;;;;;;;;;5008254;28;20216;-62
2022/10/25 11:11:40;;;;;;;12.40;7.10;;;;;;;;;;5007629;28;20211;-62
2022/10/25 11:14:08;;;;;;;12.60;7.35;;;;;;;;;;5007676;28;20208;-62
2022/10/25 11:16:38;;;;;;;15.32;6.97;;;;;;;;;;5006458;28;20212;-62
2022/10/25 11:19:04;;;;;;;14.40;6.72;;;;;;;;;;5005201;28;20695;-62
2022/10/25 11:21:34;;;;;;;11.30;6.50;;;;;;;;;;5008476;28;20306;-62
2022/10/25 11:24:03;;;;;;;14.90;7.03;;;;;;;;;;5009162;28;20240;-61
2022/10/25 11:26:43;;;;;;;12.52;6.47;;;;;;;;;;5011802;28;20215;-62
2022/10/25 11:29:11;;;;;;;11.48;6.60;;;;;;;;;;5012715;28;20217;-62
2022/10/25 11:31:43;;;;;;;14.32;6.30;;;;;;;;;;5007014;28;20316;-62
2022/10/25 11:34:15;;;;;;;12.43;6.20;;;;;;;;;;5007000;28;20232;-62
2022/10/25 11:36:42;;;;;;;14.70;5.65;;;;;;;;;;5007719;28;20266;-62
2022/10/25 11:39:12;;;;;;;13.27;5.85;;;;;;;;;;5005384;28;20550;-62
2022/10/25 11:41:47;;;;;;;13.50;6.13;;;;;;;;;;5006435;28;20706;-62
2022/10/25 11:44:22;;;;;;;14.60;5.95;;;;;;;;;;5005787;28;20259;-62
2022/10/25 11:46:47;;;;;;;13.73;5.63;;;;;;;;;;5006544;28;20259;-62
2022/10/25 11:49:13;;;;;;;12.65;5.45;;;;;;;;;;5006471;28;20228;-62
2022/10/25 11:51:49;;;;;;;13.75;5.60;;;;;;;;;;5007219;28;20926;-62
2022/10/25 11:54:22;;;;;;;11.60;5.35;;;;;;;;;;5006084;28;20808;-62
2022/10/25 11:56:50;;;;;;;16.70;6.25;;;;;;;;;;5005953;28;20209;-61
2022/10/25 11:59:24;;;;;;;13.80;4.80;;;;;;;;;;5005545;28;20209;-62
2022/10/25 12:01:57;;;;;;;14.55;6.00;;;;;;;;;;5008137;28;20212;-62
2022/10/25 12:04:23;;;;;;;11.70;5.40;;;;;;;;;;5006821;28;20281;-61
2022/10/25 12:06:50;;;;;;;12.57;5.13;;;;;;;;;;5012699;28;20232;-61
2022/10/25 12:09:22;;;;;;;13.85;5.43;;;;;;;;;;5005626;28;20239;-61
2022/10/25 12:11:48;;;;;;;14.05;5.18;;;;;;;;;;5005717;28;20802;-61
2022/10/25 12:14:14;;;;;;;12.50;5.63;;;;;;;;;;5008751;28;20209;-62
2022/10/25 12:16:40;;;;;;;14.50;5.63;;;;;;;;;;5008433;28;20219;-62
2022/10/25 12:19:10;;;;;;;9.63;4.82;;;;;;;;;;5009326;28;20211;-62
2022/10/25 12:21:40;;;;;;;11.32;4.90;;;;;;;;;;5009198;28;20216;-62
2022/10/25 12:24:06;;;;;;;12.88;5.75;;;;;;;;;;5004837;28;20701;-62
2022/10/25 12:26:33;;;;;;;11.77;4.95;;;;;;;;;;4998932;28;20287;-62
2022/10/25 12:28:59;;;;;;;11.50;5.53;;;;;;;;;;4998461;28;20607;-63
2022/10/25 12:31:25;;;;;;;13.27;5.13;;;;;;;;;;4996576;28;20707;-63
2022/10/25 12:33:53;;;;;;;10.88;4.78;;;;;;;;;;4997522;28;20224;-63
2022/10/25 12:36:22;;;;;;;9.23;4.40;;;;;;;;;;4998743;28;20843;-62
2022/10/25 12:38:47;;;;;;;10.60;4.20;;;;;;;;;;4995229;28;20207;-61
2022/10/25 12:41:12;;;;;;;9.00;3.88;;;;;;;;;;4994424;28;20347;-62
2022/10/25 12:43:41;;;;;;;10.85;4.20;;;;;;;;;;4996736;28;20895;-61
2022/10/25 12:46:16;;;;;;;8.00;4.32;;;;;;;;;;4994132;28;20230;-64
2022/10/25 12:48:44;;;;;;;7.88;3.75;;;;;;;;;;4995332;28;20232;-61
2022/10/25 12:51:17;;;;;;;10.13;3.55;;;;;;;;;;5010276;28;20266;-62
2022/10/25 12:53:43;;;;;;;8.63;3.55;;;;;;;;;;5009907;28;20204;-61
2022/10/25 12:56:18;;;;;;;10.48;3.90;;;;;;;;;;5009470;28;20224;-62
2022/10/25 12:58:50;;;;;;;8.77;3.75;;;;;;;;;;5010558;28;20216;-61
2022/10/25 13:01:25;;;;;;;9.73;3.70;;;;;;;;;;5009942;28;20216;-62
2022/10/25 13:04:09;;;;;;;7.07;3.53;;;;;;;;;;5008666;28;20776;-61
2022/10/25 13:06:35;;;;;;;8.48;3.70;;;;;;;;;;5009579;28;20232;-61
2022/10/25 13:09:02;;;;;;;11.68;4.20;;;;;;;;;;5008188;28;20331;-63
2022/10/25 13:11:31;;;;;;;8.60;3.55;;;;;;;;;;5007849;28;20298;-61
2022/10/25 13:13:56;;;;;;;8.50;3.28;;;;;;;;;;5008630;28;20738;-62
2022/10/25 13:16:25;;;;;;;9.38;2.80;;;;;;;;;;5009447;28;20208;-62
2022/10/25 13:19:10;;;;;;;9.93;2.88;;;;;;;;;;5008888;28;20267;-63
2022/10/25 13:21:51;;;;;;;10.32;2.80;;;;;;;;;;5009094;28;20224;-61
2022/10/25 13:24:34;;;;;;;10.00;3.30;;;;;;;;;;5007580;28;20255;-61
2022/10/25 13:27:22;;;;;;;8.00;2.65;;;;;;;;;;5009254;28;20204;-61
2022/10/25 13:29:57;;;;;;;7.05;2.45;;;;;;;;;;5009336;28;20201;-61
2022/10/25 13:32:23;;;;;;;10.27;3.05;;;;;;;;;;5023011;28;20219;-61
2022/10/25 13:34:48;;;;;;;8.35;2.42;;;;;;;;;;5021087;28;20270;-61
2022/10/25 13:37:29;;;;;;;8.50;2.47;;;;;;;;;;5009426;28;20292;-61
2022/10/25 13:39:55;;;;;;;9.45;2.75;;;;;;;;;;5008364;28;20207;-61
2022/10/25 13:42:29;;;;;;;8.13;2.38;;;;;;;;;;5028561;28;20999;-62
2022/10/25 13:44:55;;;;;;;5.47;2.33;;;;;;;;;;5008801;28;20215;-61
2022/10/25 13:47:25;;;;;;;7.15;2.50;;;;;;;;;;5008476;28;20212;-61
2022/10/25 13:49:50;;;;;;;7.90;2.67;;;;;;;;;;5009024;28;20212;-61
2022/10/25 13:52:20;;;;;;;8.85;2.40;;;;;;;;;;5006113;28;20218;-61
2022/10/25 13:54:46;;;;;;;8.93;2.92;;;;;;;;;;5008667;28;20208;-60
2022/10/25 13:57:38;;;;;;;10.02;3.15;;;;;;;;;;5006522;28;20212;-61
2022/10/25 14:00:08;;;;;;;9.05;2.90;;;;;;;;;;5007876;28;20244;-61
2022/10/25 14:02:33;;;;;;;7.03;2.88;;;;;;;;;;5007554;28;20224;-60
2022/10/25 14:04:59;;;;;;;7.28;3.05;;;;;;;;;;5007875;28;20215;-61
2022/10/25 14:07:39;;;;;;;8.63;3.00;;;;;;;;;;5008276;28;20282;-61
2022/10/25 14:10:06;;;;;;;8.57;3.05;;;;;;;;;;5008074;28;20220;-61
2022/10/25 14:12:31;;;;;;;8.13;2.75;;;;;;;;;;5008616;28;20547;-61
2022/10/25 14:15:05;;;;;;;7.93;2.70;;;;;;;;;;5006445;28;20209;-61
2022/10/25 14:17:34;;;;;;;8.15;2.42;;;;;;;;;;5007923;28;20220;-60
2022/10/25 14:20:00;;;;;;;9.27;2.85;;;;;;;;;;5006711;28;20205;-61
2022/10/25 14:22:29;;;;;;;10.55;2.60;;;;;;;;;;5005878;28;20247;-61
2022/10/25 14:24:55;;;;;;;9.35;2.40;;;;;;;;;;5007213;28;20427;-61
2022/10/25 14:27:28;;;;;;;11.52;2.35;;;;;;;;;;5007729;28;20317;-63
2022/10/25 14:29:53;;;;;;;6.95;2.13;;;;;;;;;;5008807;28;20293;-63
2022/10/25 14:32:19;;;;;;;11.40;2.70;;;;;;;;;;5007880;28;20220;-64
2022/10/25 14:34:47;;;;;;;7.72;2.00;;;;;;;;;;5006051;28;20215;-65